createdAt,value
2018-06-11T00:01:49.629Z,8.77
2018-06-11T00:04:17.823Z,8.07
2018-06-11T00:06:45.999Z,7.10
2018-06-11T00:09:14.203Z,6.77
2018-06-11T00:11:42.445Z,8.10
2018-06-11T00:14:10.706Z,8.07
2018-06-11T00:16:38.914Z,8.50
2018-06-11T00:19:07.115Z,7.77
2018-06-11T00:21:35.369Z,9.07
2018-06-11T00:24:03.830Z,8.17
2018-06-11T00:26:32.015Z,8.60
2018-06-11T00:29:00.207Z,8.93
2018-06-11T00:31:28.570Z,8.47
2018-06-11T00:33:56.847Z,9.03
2018-06-11T00:36:25.021Z,8.30
2018-06-11T00:38:53.201Z,9.70
2018-06-11T00:41:21.480Z,8.63
2018-06-11T00:43:49.678Z,8.63
2018-06-11T00:46:17.865Z,8.30
2018-06-11T00:48:46.067Z,9.43
2018-06-11T00:51:14.265Z,8.67
2018-06-11T00:53:42.504Z,8.43
2018-06-11T00:56:10.737Z,9.40
2018-06-11T00:58:38.670Z,8.70
2018-06-11T01:01:06.863Z,7.83
2018-06-11T01:03:35.066Z,7.93
2018-06-11T01:06:03.264Z,8.77
2018-06-11T01:08:31.439Z,7.90
2018-06-11T01:10:59.634Z,8.27
2018-06-11T01:13:27.826Z,9.57
2018-06-11T01:15:56.039Z,7.40
2018-06-11T01:18:24.230Z,7.73
2018-06-11T01:20:52.460Z,7.07
2018-06-11T01:23:20.727Z,9.00
2018-06-11T01:25:48.966Z,9.20
2018-06-11T01:28:16.895Z,8.70
2018-06-11T01:30:45.105Z,8.00
2018-06-11T01:33:13.319Z,8.40
2018-06-11T01:35:41.422Z,6.93
2018-06-11T01:38:09.600Z,9.10
2018-06-11T01:40:37.787Z,6.80
2018-06-11T01:43:05.966Z,8.27
2018-06-11T01:45:34.215Z,8.10
2018-06-11T01:48:02.418Z,8.70
2018-06-11T01:50:30.606Z,8.83
2018-06-11T01:52:58.846Z,9.03
2018-06-11T01:55:27.056Z,9.07
2018-06-11T01:57:55.588Z,9.33
2018-06-11T02:00:23.808Z,8.53
2018-06-11T02:02:51.970Z,8.20
2018-06-11T02:05:20.139Z,8.20
2018-06-11T02:07:48.258Z,9.50
2018-06-11T02:10:16.438Z,9.17
2018-06-11T02:12:44.688Z,8.70
2018-06-11T02:15:12.952Z,8.97
2018-06-11T02:17:41.074Z,9.87
2018-06-11T02:20:09.440Z,8.20
2018-06-11T02:22:37.673Z,9.00
2018-06-11T02:25:05.875Z,9.43
2018-06-11T02:27:34.411Z,10.20
2018-06-11T02:30:02.612Z,10.20
2018-06-11T02:32:30.803Z,8.47
2018-06-11T02:34:58.987Z,8.40
2018-06-11T02:37:27.212Z,10.13
2018-06-11T02:39:55.391Z,8.93
2018-06-11T02:42:23.653Z,10.57
2018-06-11T02:44:51.856Z,10.03
2018-06-11T02:47:20.060Z,9.97
2018-06-11T02:49:48.326Z,9.13
2018-06-11T02:52:16.561Z,9.13
2018-06-11T02:54:44.743Z,9.00
2018-06-11T02:57:12.943Z,9.70
2018-06-11T02:59:41.138Z,7.60
2018-06-11T03:02:09.417Z,9.23
2018-06-11T03:04:37.604Z,7.90
2018-06-11T03:07:05.794Z,9.33
2018-06-11T03:09:34.008Z,8.53
2018-06-11T03:12:02.261Z,9.20
2018-06-11T03:14:30.541Z,10.00
2018-06-11T03:16:58.754Z,7.90
2018-06-11T03:19:26.930Z,9.50
2018-06-11T03:21:55.189Z,8.53
2018-06-11T03:24:23.718Z,9.53
2018-06-11T03:26:51.906Z,9.30
2018-06-11T03:29:20.102Z,9.80
2018-06-11T03:31:48.354Z,7.83
2018-06-11T03:34:16.298Z,9.87
2018-06-11T03:36:44.487Z,9.50
2018-06-11T03:39:12.684Z,9.97
2018-06-11T03:41:40.941Z,9.90
2018-06-11T03:44:09.130Z,11.60
2018-06-11T03:46:37.352Z,9.30
2018-06-11T03:49:05.559Z,9.83
2018-06-11T03:51:34.855Z,10.40
2018-06-11T03:54:03.122Z,8.10
2018-06-11T03:56:31.321Z,8.97
2018-06-11T03:58:59.511Z,10.07
2018-06-11T04:01:27.836Z,9.47
2018-06-11T04:03:56.019Z,9.23
2018-06-11T04:06:24.222Z,9.60
2018-06-11T04:08:52.453Z,8.57
2018-06-11T04:11:20.779Z,8.37
2018-06-11T04:13:48.975Z,10.23
2018-06-11T04:16:19.371Z,9.10
2018-06-11T04:18:47.564Z,9.10
2018-06-11T04:21:15.863Z,9.03
2018-06-11T04:23:44.064Z,8.93
2018-06-11T04:26:12.254Z,8.83
2018-06-11T04:28:40.469Z,8.00
2018-06-11T04:31:08.642Z,9.13
2018-06-11T04:33:38.072Z,10.87
2018-06-11T04:36:06.299Z,10.33
2018-06-11T04:38:34.530Z,8.43
2018-06-11T04:41:02.927Z,9.80
2018-06-11T04:43:31.135Z,8.23
2018-06-11T04:45:59.327Z,9.30
2018-06-11T04:48:27.270Z,7.83
2018-06-11T04:50:55.462Z,8.53
2018-06-11T04:53:23.675Z,9.80
2018-06-11T04:55:51.885Z,9.97
2018-06-11T04:58:20.063Z,9.10
2018-06-11T05:00:48.303Z,9.00
2018-06-11T05:03:16.504Z,7.03
2018-06-11T05:05:44.702Z,8.30
2018-06-11T05:08:12.911Z,8.33
2018-06-11T05:10:41.140Z,7.73
2018-06-11T05:13:09.347Z,6.60
2018-06-11T05:15:37.548Z,8.80
2018-06-11T05:18:05.756Z,8.60
2018-06-11T05:20:34.289Z,9.67
2018-06-11T05:23:02.471Z,8.57
2018-06-11T05:25:30.677Z,7.70
2018-06-11T05:27:58.878Z,8.70
2018-06-11T05:30:27.079Z,7.03
2018-06-11T05:32:55.264Z,7.80
2018-06-11T05:35:23.456Z,8.47
2018-06-11T05:37:51.652Z,8.60
2018-06-11T05:40:19.862Z,7.77
2018-06-11T05:42:48.084Z,8.17
2018-06-11T05:45:16.287Z,8.13
2018-06-11T05:47:44.464Z,7.03
2018-06-11T05:50:12.722Z,7.93
2018-06-11T05:52:40.904Z,7.30
2018-06-11T05:55:09.094Z,7.80
2018-06-11T05:57:37.288Z,8.57
2018-06-11T06:00:05.480Z,8.00
2018-06-11T06:02:33.706Z,8.10
2018-06-11T06:05:01.915Z,8.73
2018-06-11T06:07:30.121Z,8.17
2018-06-11T06:09:58.487Z,7.97
2018-06-11T06:12:26.671Z,7.40
2018-06-11T06:14:54.883Z,6.30
2018-06-11T06:17:23.093Z,8.70
2018-06-11T06:19:51.291Z,7.40
2018-06-11T06:22:19.459Z,7.50
2018-06-11T06:24:47.664Z,7.20
2018-06-11T06:27:15.891Z,7.73
2018-06-11T06:29:44.083Z,6.80
2018-06-11T06:32:12.309Z,7.03
2018-06-11T06:34:40.564Z,6.70
2018-06-11T06:37:08.715Z,7.50
2018-06-11T06:39:36.931Z,7.50
2018-06-11T06:42:05.111Z,7.43
2018-06-11T06:44:33.350Z,7.40
2018-06-11T06:47:01.899Z,5.33
2018-06-11T06:49:30.073Z,7.03
2018-06-11T06:51:58.344Z,6.77
2018-06-11T06:54:26.588Z,8.30
2018-06-11T06:56:54.804Z,6.80
2018-06-11T06:59:22.980Z,6.63
2018-06-11T07:01:51.184Z,6.67
2018-06-11T07:04:19.457Z,6.97
2018-06-11T07:06:47.667Z,6.63
2018-06-11T07:09:15.619Z,6.70
2018-06-11T07:11:43.800Z,7.40
2018-06-11T07:14:11.762Z,6.23
2018-06-11T07:16:39.951Z,7.10
2018-06-11T07:19:08.193Z,6.70
2018-06-11T07:21:36.492Z,6.00
2018-06-11T07:24:04.697Z,6.00
2018-06-11T07:26:32.904Z,5.90
2018-06-11T07:29:01.096Z,8.13
2018-06-11T07:31:29.458Z,6.50
2018-06-11T07:33:57.660Z,7.07
2018-06-11T07:36:25.892Z,6.00
2018-06-11T07:38:54.101Z,5.77
2018-06-11T07:41:22.319Z,6.20
2018-06-11T07:43:50.512Z,6.70
2018-06-11T07:46:18.705Z,6.10
2018-06-11T07:48:46.895Z,6.67
2018-06-11T07:51:15.100Z,7.53
2018-06-11T07:53:43.291Z,7.87
2018-06-11T07:56:11.475Z,7.63
2018-06-11T07:58:39.660Z,6.83
2018-06-11T08:01:07.831Z,7.00
2018-06-11T08:03:36.026Z,6.97
2018-06-11T08:06:04.339Z,7.63
2018-06-11T08:08:32.532Z,6.37
2018-06-11T08:11:00.743Z,6.17
2018-06-11T08:13:29.008Z,6.40
2018-06-11T08:15:57.131Z,7.77
2018-06-11T08:18:25.339Z,7.33
2018-06-11T08:20:53.638Z,7.67
2018-06-11T08:23:21.780Z,7.20
2018-06-11T08:25:49.972Z,6.70
2018-06-11T08:28:18.200Z,7.40
2018-06-11T08:30:46.367Z,7.47
2018-06-11T08:33:14.595Z,6.23
2018-06-11T08:35:42.799Z,6.27
2018-06-11T08:38:10.995Z,6.00
2018-06-11T08:40:39.211Z,7.93
2018-06-11T08:43:07.405Z,5.87
2018-06-11T08:45:35.768Z,7.50
2018-06-11T08:48:03.959Z,6.37
2018-06-11T08:50:32.174Z,6.83
2018-06-11T08:53:00.364Z,7.73
2018-06-11T08:55:28.623Z,7.73
2018-06-11T08:57:56.811Z,6.97
2018-06-11T09:00:24.996Z,6.20
2018-06-11T09:02:53.200Z,6.87
2018-06-11T09:05:21.384Z,8.03
2018-06-11T09:07:49.888Z,7.33
2018-06-11T09:10:18.091Z,6.90
2018-06-11T09:12:46.268Z,6.10
2018-06-11T09:15:14.455Z,5.30
2018-06-11T09:17:42.671Z,18.57
2018-06-11T09:20:10.856Z,6.83
2018-06-11T09:22:39.063Z,7.03
2018-06-11T09:25:07.308Z,6.87
2018-06-11T09:27:35.432Z,6.80
2018-06-11T09:30:03.692Z,5.50
2018-06-11T09:32:31.903Z,5.80
2018-06-11T09:35:00.092Z,6.90
2018-06-11T09:37:28.275Z,6.47
2018-06-11T09:39:56.468Z,6.17
2018-06-11T09:42:24.667Z,6.20
2018-06-11T09:44:52.944Z,7.30
2018-06-11T09:47:21.211Z,5.10
2018-06-11T09:49:49.403Z,6.17
2018-06-11T09:52:17.581Z,6.17
2018-06-11T09:54:45.764Z,5.57
2018-06-11T09:57:13.979Z,5.57
2018-06-11T09:59:42.166Z,6.53
2018-06-11T10:02:10.382Z,6.00
2018-06-11T10:04:38.559Z,5.50
2018-06-11T10:07:06.767Z,5.97
2018-06-11T10:09:34.951Z,6.50
2018-06-11T10:12:02.904Z,6.97
2018-06-11T10:14:31.156Z,6.07
2018-06-11T10:16:59.349Z,6.90
2018-06-11T10:19:27.553Z,6.10
2018-06-11T10:21:55.809Z,5.87
2018-06-11T10:24:24.030Z,6.50
2018-06-11T10:26:52.236Z,5.53
2018-06-11T10:29:20.417Z,5.77
2018-06-11T10:31:48.685Z,6.67
2018-06-11T10:34:16.883Z,5.40
2018-06-11T10:36:45.087Z,6.53
2018-06-11T10:39:13.324Z,7.00
2018-06-11T10:41:41.523Z,6.30
2018-06-11T10:44:09.723Z,6.17
2018-06-11T10:46:37.924Z,6.50
2018-06-11T10:49:06.123Z,7.50
2018-06-11T10:51:34.368Z,7.70
2018-06-11T10:54:02.577Z,6.33
2018-06-11T10:56:30.784Z,7.17
2018-06-11T10:58:59.026Z,6.60
2018-06-11T11:01:27.288Z,6.83
2018-06-11T11:03:55.490Z,5.87
2018-06-11T11:06:23.680Z,5.90
2018-06-11T11:08:51.869Z,6.27
2018-06-11T11:11:20.149Z,6.03
2018-06-11T11:13:48.348Z,5.07
2018-06-11T11:16:16.527Z,5.70
2018-06-11T11:18:44.723Z,6.10
2018-06-11T11:21:12.919Z,6.03
2018-06-11T11:23:41.115Z,5.17
2018-06-11T11:26:09.340Z,5.07
2018-06-11T11:28:37.535Z,5.40
2018-06-11T11:31:05.726Z,5.10
2018-06-11T11:33:33.924Z,4.43
2018-06-11T11:36:02.110Z,6.53
2018-06-11T11:38:30.360Z,6.87
2018-06-11T11:40:58.548Z,5.37
2018-06-11T11:43:26.798Z,5.50
2018-06-11T11:45:55.102Z,5.97
2018-06-11T11:48:23.330Z,6.63
2018-06-11T11:50:51.264Z,5.33
2018-06-11T11:53:19.491Z,5.13
2018-06-11T11:55:47.689Z,5.83
2018-06-11T11:58:15.904Z,6.63
2018-06-11T12:00:44.134Z,6.30
2018-06-11T12:03:12.344Z,6.27
2018-06-11T12:05:40.581Z,6.17
2018-06-11T12:08:08.792Z,6.43
2018-06-11T12:10:36.967Z,6.40
2018-06-11T12:13:05.162Z,6.50
2018-06-11T12:15:33.416Z,6.07
2018-06-11T12:18:01.611Z,6.67
2018-06-11T12:20:29.785Z,7.37
2018-06-11T12:22:57.971Z,7.10
2018-06-11T12:25:26.173Z,6.97
2018-06-11T12:27:54.384Z,7.70
2018-06-11T12:30:22.574Z,7.90
2018-06-11T12:32:51.508Z,7.83
2018-06-11T12:35:19.747Z,7.43
2018-06-11T12:37:47.935Z,7.90
2018-06-11T12:40:16.138Z,6.07
2018-06-11T12:42:44.418Z,7.17
2018-06-11T12:45:12.628Z,7.67
2018-06-11T12:47:40.854Z,6.57
2018-06-11T12:50:09.775Z,6.53
2018-06-11T12:52:38.199Z,6.90
2018-06-11T12:55:06.390Z,8.50
2018-06-11T12:57:34.584Z,7.27
2018-06-11T13:00:02.762Z,8.00
2018-06-11T13:02:31.067Z,7.20
2018-06-11T13:04:59.260Z,7.00
2018-06-11T13:07:27.495Z,8.03
2018-06-11T13:09:55.703Z,6.30
2018-06-11T13:12:23.969Z,6.30
2018-06-11T13:14:52.158Z,8.03
2018-06-11T13:17:20.536Z,7.40
2018-06-11T13:19:48.719Z,6.30
2018-06-11T13:22:16.919Z,5.73
2018-06-11T13:24:45.135Z,7.60
2018-06-11T13:27:13.323Z,8.50
2018-06-11T13:29:41.506Z,7.47
2018-06-11T13:32:09.780Z,7.70
2018-06-11T13:34:38.002Z,8.50
2018-06-11T13:37:06.244Z,8.10
2018-06-11T13:39:34.395Z,8.90
2018-06-11T13:42:02.604Z,8.03
2018-06-11T13:44:30.792Z,7.80
2018-06-11T13:46:59.020Z,7.20
2018-06-11T13:49:27.192Z,7.83
2018-06-11T13:51:55.388Z,7.33
2018-06-11T13:54:23.584Z,8.77
2018-06-11T13:56:51.792Z,8.83
2018-06-11T13:59:20.012Z,8.30
2018-06-11T14:01:48.188Z,8.83
2018-06-11T14:04:16.395Z,8.00
2018-06-11T14:06:44.606Z,7.83
2018-06-11T14:09:12.791Z,9.20
2018-06-11T14:11:40.804Z,7.80
2018-06-11T14:14:08.981Z,8.60
2018-06-11T14:16:37.176Z,9.23
2018-06-11T14:19:05.575Z,9.30
2018-06-11T14:21:33.885Z,9.40
2018-06-11T14:24:02.104Z,10.00
2018-06-11T14:26:30.452Z,10.23
2018-06-11T14:28:58.615Z,8.70
2018-06-11T14:31:26.963Z,10.33
2018-06-11T14:33:55.155Z,9.07
2018-06-11T14:36:23.408Z,9.63
2018-06-11T14:38:51.638Z,10.07
2018-06-11T14:41:19.933Z,10.07
2018-06-11T14:43:48.203Z,9.77
2018-06-11T14:46:16.398Z,11.17
2018-06-11T14:48:44.599Z,9.97
2018-06-11T14:51:12.868Z,11.90
2018-06-11T14:53:41.048Z,11.53
2018-06-11T14:57:38.807Z,11.30
2018-06-11T15:00:07.002Z,11.33
2018-06-11T15:02:35.281Z,10.53
2018-06-11T15:05:03.499Z,10.53
2018-06-11T15:07:31.708Z,11.33
2018-06-11T15:09:59.949Z,12.73
2018-06-11T15:12:28.140Z,11.63
2018-06-11T15:14:56.349Z,13.63
2018-06-11T15:17:24.543Z,10.50
2018-06-11T15:19:53.034Z,11.57
2018-06-11T15:22:21.254Z,10.40
2018-06-11T15:24:49.471Z,11.33
2018-06-11T15:27:17.675Z,12.10
2018-06-11T15:29:45.875Z,10.20
2018-06-11T15:32:14.078Z,12.03
2018-06-11T15:34:42.283Z,12.13
2018-06-11T15:37:10.477Z,10.43
2018-06-11T15:39:38.676Z,11.10
2018-06-11T15:42:06.907Z,9.80
2018-06-11T15:44:35.119Z,12.90
2018-06-11T15:47:03.950Z,11.90
2018-06-11T15:49:32.454Z,11.60
2018-06-11T15:52:00.687Z,10.13
2018-06-11T15:54:28.888Z,12.43
2018-06-11T15:56:57.084Z,12.63
2018-06-11T15:59:25.305Z,12.10
2018-06-11T16:01:53.857Z,11.87
2018-06-11T16:04:22.055Z,11.70
2018-06-11T16:06:50.267Z,11.47
2018-06-11T16:09:18.491Z,11.33
2018-06-11T16:11:46.759Z,12.87
2018-06-11T16:14:14.968Z,9.70
2018-06-11T16:16:43.173Z,11.17
2018-06-11T16:19:11.374Z,12.10
2018-06-11T16:21:39.578Z,12.30
2018-06-11T16:24:07.780Z,13.23
2018-06-11T16:26:35.987Z,11.17
2018-06-11T16:29:04.196Z,11.40
2018-06-11T16:31:32.205Z,11.77
2018-06-11T16:34:00.376Z,12.20
2018-06-11T16:36:28.583Z,11.30
2018-06-11T16:38:56.828Z,11.10
2018-06-11T16:41:25.093Z,12.30
2018-06-11T16:43:53.318Z,12.40
2018-06-11T16:46:21.570Z,12.63
2018-06-11T16:48:49.792Z,12.43
2018-06-11T16:51:18.027Z,11.97
2018-06-11T16:53:46.247Z,11.53
2018-06-11T16:56:14.468Z,11.90
2018-06-11T16:58:42.446Z,10.37
2018-06-11T17:01:10.672Z,12.93
2018-06-11T17:03:38.866Z,13.20
2018-06-11T17:06:07.083Z,11.03
2018-06-11T17:08:35.295Z,14.07
2018-06-11T17:11:03.480Z,11.33
2018-06-11T17:13:31.740Z,12.47
2018-06-11T17:15:59.935Z,11.07
2018-06-11T17:18:28.166Z,11.57
2018-06-11T17:20:56.368Z,14.10
2018-06-11T17:23:24.547Z,10.40
2018-06-11T17:25:52.777Z,11.57
2018-06-11T17:28:20.976Z,12.83
2018-06-11T17:30:49.175Z,10.33
2018-06-11T17:33:17.131Z,11.80
2018-06-11T17:35:45.196Z,11.20
2018-06-11T17:38:13.409Z,11.47
2018-06-11T17:40:41.595Z,12.27
2018-06-11T17:43:09.866Z,11.97
2018-06-11T17:45:38.071Z,11.57
2018-06-11T17:48:06.259Z,11.20
2018-06-11T17:50:34.483Z,12.37
2018-06-11T17:53:02.725Z,11.47
2018-06-11T17:55:31.098Z,12.30
2018-06-11T17:57:59.276Z,10.53
2018-06-11T18:00:27.501Z,12.70
2018-06-11T18:02:55.691Z,11.70
2018-06-11T18:05:23.983Z,11.47
2018-06-11T18:07:52.207Z,9.60
2018-06-11T18:10:20.415Z,12.60
2018-06-11T18:12:48.679Z,10.43
2018-06-11T18:15:16.875Z,10.97
2018-06-11T18:17:45.068Z,10.40
2018-06-11T18:20:13.292Z,11.63
2018-06-11T18:22:41.476Z,11.93
2018-06-11T18:25:09.663Z,12.23
2018-06-11T18:27:37.863Z,11.73
2018-06-11T18:30:06.089Z,11.40
2018-06-11T18:32:34.297Z,11.57
2018-06-11T18:35:02.500Z,12.13
2018-06-11T18:37:30.687Z,12.03
2018-06-11T18:39:58.897Z,12.10
2018-06-11T18:42:27.105Z,11.23
2018-06-11T18:44:55.336Z,12.20
2018-06-11T18:47:23.542Z,12.53
2018-06-11T18:49:51.757Z,11.80
2018-06-11T18:52:19.976Z,10.47
2018-06-11T18:54:48.204Z,10.60
2018-06-11T18:57:16.420Z,13.00
2018-06-11T18:59:44.616Z,11.00
2018-06-11T19:02:12.861Z,12.60
2018-06-11T19:04:41.367Z,11.70
2018-06-11T19:07:09.511Z,12.50
2018-06-11T19:09:37.707Z,12.47
2018-06-11T19:12:05.929Z,12.00
2018-06-11T19:14:34.747Z,11.43
2018-06-11T19:17:02.978Z,12.80
2018-06-11T19:19:31.187Z,11.57
2018-06-11T19:22:29.982Z,10.90
2018-06-11T19:24:58.192Z,9.93
2018-06-11T19:27:26.393Z,11.40
2018-06-11T19:29:54.605Z,12.50
2018-06-11T19:32:22.873Z,10.80
2018-06-11T19:34:51.088Z,13.43
2018-06-11T19:37:19.323Z,11.33
2018-06-11T19:39:47.527Z,12.17
2018-06-11T19:42:15.734Z,12.13
2018-06-11T19:44:44.135Z,12.30
2018-06-11T19:47:12.348Z,11.90
2018-06-11T19:49:40.563Z,11.93
2018-06-11T19:52:08.806Z,10.70
2018-06-11T19:54:37.043Z,13.50
2018-06-11T19:57:05.238Z,12.50
2018-06-11T19:59:33.464Z,12.60
2018-06-11T20:02:02.223Z,11.70
2018-06-11T20:04:30.479Z,11.40
2018-06-11T20:06:58.695Z,10.77
2018-06-11T20:09:26.929Z,11.70
2018-06-11T20:11:55.214Z,10.73
2018-06-11T20:14:23.440Z,11.63
2018-06-11T20:16:51.659Z,12.17
2018-06-11T20:19:19.927Z,11.80
2018-06-11T20:21:48.090Z,13.00
2018-06-11T20:24:16.291Z,11.73
2018-06-11T20:26:44.498Z,10.60
2018-06-11T20:29:12.720Z,11.77
2018-06-11T20:31:40.994Z,11.60
2018-06-11T20:34:09.202Z,11.30
2018-06-11T20:36:37.490Z,10.80
2018-06-11T20:39:07.352Z,9.87
2018-06-11T20:41:35.610Z,10.70
2018-06-11T20:44:03.820Z,10.50
2018-06-11T20:46:32.035Z,9.80
2018-06-11T20:49:01.639Z,10.43
2018-06-11T20:51:30.008Z,10.80
2018-06-11T20:53:58.205Z,11.43
2018-06-11T20:56:26.439Z,8.33
2018-06-11T20:58:54.642Z,10.80
2018-06-11T21:01:22.907Z,10.10
2018-06-11T21:03:51.127Z,9.23
2018-06-11T21:06:19.327Z,10.40
2018-06-11T21:08:47.588Z,10.10
2018-06-11T21:11:15.881Z,11.40
2018-06-11T21:13:44.408Z,10.07
2018-06-11T21:16:13.067Z,8.03
2018-06-11T21:18:41.259Z,10.77
2018-06-11T21:21:09.497Z,7.90
2018-06-11T21:23:37.693Z,10.67
2018-06-11T21:26:05.913Z,8.73
2018-06-11T21:28:35.119Z,7.77
2018-06-11T21:31:03.479Z,8.13
2018-06-11T21:33:31.725Z,7.43
2018-06-11T21:35:59.980Z,8.00
2018-06-11T21:38:28.152Z,8.47
2018-06-11T21:40:56.352Z,8.53
2018-06-11T21:43:24.547Z,6.97
2018-06-11T21:45:52.730Z,7.13
2018-06-11T21:48:20.936Z,9.70
2018-06-11T21:50:49.119Z,7.30
2018-06-11T21:53:17.384Z,5.97
2018-06-11T21:55:45.478Z,7.70
2018-06-11T21:58:13.690Z,7.13
2018-06-11T22:00:41.893Z,6.90
2018-06-11T22:03:10.161Z,5.93
2018-06-11T22:07:07.608Z,5.87
2018-06-11T22:09:35.802Z,6.30
2018-06-11T22:12:03.994Z,6.63
2018-06-11T22:14:32.175Z,7.03
2018-06-11T22:17:00.371Z,5.63
2018-06-11T22:19:28.631Z,6.60
2018-06-11T22:21:56.877Z,7.10
2018-06-11T22:24:25.106Z,6.30
2018-06-11T22:26:53.333Z,6.53
2018-06-11T22:29:21.520Z,5.43
2018-06-11T22:31:49.767Z,6.27
2018-06-11T22:34:17.955Z,7.37
2018-06-11T22:36:46.157Z,6.10
2018-06-11T22:39:14.379Z,7.03
2018-06-11T22:41:42.619Z,5.27
2018-06-11T22:44:10.803Z,7.23
2018-06-11T22:46:39.025Z,7.30
2018-06-11T22:49:07.203Z,6.83
2018-06-11T22:51:35.467Z,6.00
2018-06-11T22:54:03.654Z,6.87
2018-06-11T22:56:31.872Z,6.40
2018-06-11T22:59:00.077Z,6.60
2018-06-11T23:01:28.314Z,5.73
2018-06-11T23:03:56.589Z,7.00
2018-06-11T23:06:24.831Z,6.60
2018-06-11T23:08:53.027Z,6.27
2018-06-11T23:11:21.285Z,6.43
2018-06-11T23:13:49.471Z,5.73
2018-06-11T23:16:17.819Z,6.40
2018-06-11T23:18:46.010Z,6.93
2018-06-11T23:21:14.201Z,5.57
2018-06-11T23:23:42.410Z,5.50
2018-06-11T23:26:10.612Z,6.13
2018-06-11T23:28:38.552Z,5.23
2018-06-11T23:31:06.809Z,5.63
2018-06-11T23:33:34.999Z,6.33
2018-06-11T23:36:03.212Z,6.37
2018-06-11T23:38:31.399Z,4.87
2018-06-11T23:40:59.603Z,6.63
2018-06-11T23:43:27.788Z,7.03
2018-06-11T23:45:55.988Z,6.20
2018-06-11T23:48:24.186Z,5.63
2018-06-11T23:50:52.383Z,6.03
2018-06-11T23:53:20.585Z,6.30
2018-06-11T23:55:48.773Z,8.10
2018-06-11T23:58:16.968Z,5.50
